sensor_id;sensor_type;location;lat;lon;timestamp;pressure;altitude;pressure_sealevel;temperature;humidity
65758;BME280;52495;52.208;5.158;2022-08-02T00:00:10;101849.09;;;17.43;59.70
65758;BME280;52495;52.208;5.158;2022-08-02T00:02:37;101837.88;;;17.41;59.94
65758;BME280;52495;52.208;5.158;2022-08-02T00:05:05;101839.53;;;17.44;59.73
65758;BME280;52495;52.208;5.158;2022-08-02T00:07:32;101842.94;;;17.46;59.43
65758;BME280;52495;52.208;5.158;2022-08-02T00:10:00;101841.97;;;17.50;59.65
65758;BME280;52495;52.208;5.158;2022-08-02T00:12:28;101825.47;;;17.48;59.78
65758;BME280;52495;52.208;5.158;2022-08-02T00:14:55;101835.63;;;17.57;59.80
65758;BME280;52495;52.208;5.158;2022-08-02T00:17:22;101826.91;;;17.58;59.75
65758;BME280;52495;52.208;5.158;2022-08-02T00:19:49;101820.84;;;17.58;59.48
65758;BME280;52495;52.208;5.158;2022-08-02T00:22:16;101811.28;;;17.57;59.55
65758;BME280;52495;52.208;5.158;2022-08-02T00:24:42;101813.78;;;17.60;59.44
65758;BME280;52495;52.208;5.158;2022-08-02T00:27:14;101808.56;;;17.60;59.63
65758;BME280;52495;52.208;5.158;2022-08-02T00:29:41;101807.78;;;17.58;59.36
65758;BME280;52495;52.208;5.158;2022-08-02T00:32:07;101812.03;;;17.60;59.19
65758;BME280;52495;52.208;5.158;2022-08-02T00:34:34;101807.78;;;17.58;59.26
65758;BME280;52495;52.208;5.158;2022-08-02T00:37:01;101812.03;;;17.60;59.21
65758;BME280;52495;52.208;5.158;2022-08-02T00:39:27;101808.72;;;17.55;59.48
65758;BME280;52495;52.208;5.158;2022-08-02T00:41:55;101811.41;;;17.52;59.60
65758;BME280;52495;52.208;5.158;2022-08-02T00:44:23;101806.19;;;17.52;59.94
65758;BME280;52495;52.208;5.158;2022-08-02T00:46:50;101805.09;;;17.59;60.09
65758;BME280;52495;52.208;5.158;2022-08-02T00:49:16;101798.03;;;17.63;60.16
65758;BME280;52495;52.208;5.158;2022-08-02T00:51:43;101804.09;;;17.64;60.31
65758;BME280;52495;52.208;5.158;2022-08-02T00:54:10;101795.38;;;17.65;60.37
65758;BME280;52495;52.208;5.158;2022-08-02T00:56:37;101791.16;;;17.60;60.42
65758;BME280;52495;52.208;5.158;2022-08-02T00:59:03;101788.63;;;17.57;60.48
65758;BME280;52495;52.208;5.158;2022-08-02T01:01:32;101798.31;;;17.54;61.04
65758;BME280;52495;52.208;5.158;2022-08-02T01:04:06;101798.56;;;17.46;61.03
65758;BME280;52495;52.208;5.158;2022-08-02T01:06:37;101797.09;;;17.37;61.28
65758;BME280;52495;52.208;5.158;2022-08-02T01:09:04;101788.63;;;17.29;61.67
65758;BME280;52495;52.208;5.158;2022-08-02T01:11:33;101801.88;;;17.23;61.97
65758;BME280;52495;52.208;5.158;2022-08-02T01:14:02;101792.56;;;17.14;62.13
65758;BME280;52495;52.208;5.158;2022-08-02T01:16:36;101788.34;;;17.08;62.49
65758;BME280;52495;52.208;5.158;2022-08-02T01:19:14;101779.75;;;17.06;62.56
65758;BME280;52495;52.208;5.158;2022-08-02T01:22:09;101781.63;;;17.01;63.24
65758;BME280;52495;52.208;5.158;2022-08-02T01:25:06;101779.00;;;17.01;63.42
65758;BME280;52495;52.208;5.158;2022-08-02T01:27:45;101769.47;;;17.00;63.19
65758;BME280;52495;52.208;5.158;2022-08-02T01:30:18;101770.47;;;16.96;63.09
65758;BME280;52495;52.208;5.158;2022-08-02T01:32:54;101765.25;;;16.96;63.70
65758;BME280;52495;52.208;5.158;2022-08-02T01:35:32;101766.94;;;16.98;63.34
65758;BME280;52495;52.208;5.158;2022-08-02T01:38:06;101765.22;;;16.97;63.82
65758;BME280;52495;52.208;5.158;2022-08-02T01:40:36;101761.56;;;17.03;63.43
65758;BME280;52495;52.208;5.158;2022-08-02T01:43:06;101774.53;;;17.06;63.43
65758;BME280;52495;52.208;5.158;2022-08-02T01:45:38;101771.91;;;17.06;63.69
65758;BME280;52495;52.208;5.158;2022-08-02T01:48:06;101767.38;;;17.13;63.36
65758;BME280;52495;52.208;5.158;2022-08-02T01:50:36;101767.28;;;17.16;63.23
65758;BME280;52495;52.208;5.158;2022-08-02T01:53:05;101769.84;;;17.18;63.17
65758;BME280;52495;52.208;5.158;2022-08-02T01:55:38;101760.34;;;17.15;63.39
65758;BME280;52495;52.208;5.158;2022-08-02T01:58:07;101774.91;;;17.22;63.18
65758;BME280;52495;52.208;5.158;2022-08-02T02:00:41;101767.06;;;17.22;63.04
65758;BME280;52495;52.208;5.158;2022-08-02T02:03:12;101767.16;;;17.19;62.88
65758;BME280;52495;52.208;5.158;2022-08-02T02:05:40;101759.47;;;17.14;63.09
65758;BME280;52495;52.208;5.158;2022-08-02T02:08:08;101758.72;;;17.11;62.96
65758;BME280;52495;52.208;5.158;2022-08-02T02:10:37;101768.44;;;17.06;63.48
65758;BME280;52495;52.208;5.158;2022-08-02T02:13:07;101753.88;;;16.98;63.50
65758;BME280;52495;52.208;5.158;2022-08-02T02:15:42;101754.84;;;16.93;63.71
65758;BME280;52495;52.208;5.158;2022-08-02T02:18:16;101755.88;;;16.89;64.16
65758;BME280;52495;52.208;5.158;2022-08-02T02:20:43;101755.94;;;16.86;63.87
65758;BME280;52495;52.208;5.158;2022-08-02T02:23:11;101764.81;;;16.80;63.68
65758;BME280;52495;52.208;5.158;2022-08-02T02:25:39;101757.22;;;16.72;64.20
65758;BME280;52495;52.208;5.158;2022-08-02T02:28:10;101758.22;;;16.66;64.56
65758;BME280;52495;52.208;5.158;2022-08-02T02:30:38;101746.28;;;16.58;64.91
65758;BME280;52495;52.208;5.158;2022-08-02T02:33:07;101748.91;;;16.58;65.09
65758;BME280;52495;52.208;5.158;2022-08-02T02:35:36;101740.22;;;16.57;65.10
65758;BME280;52495;52.208;5.158;2022-08-02T02:38:08;101743.69;;;16.58;65.17
65758;BME280;52495;52.208;5.158;2022-08-02T02:40:36;101742.97;;;16.52;65.42
65758;BME280;52495;52.208;5.158;2022-08-02T02:43:05;101740.28;;;16.56;64.89
65758;BME280;52495;52.208;5.158;2022-08-02T02:45:35;101744.72;;;16.52;65.08
65758;BME280;52495;52.208;5.158;2022-08-02T02:48:08;101738.78;;;16.47;65.48
65758;BME280;52495;52.208;5.158;2022-08-02T02:50:35;101744.97;;;16.43;65.61
65758;BME280;52495;52.208;5.158;2022-08-02T02:53:02;101744.09;;;16.42;65.62
65758;BME280;52495;52.208;5.158;2022-08-02T02:55:31;101739.91;;;16.38;65.78
65758;BME280;52495;52.208;5.158;2022-08-02T02:58:06;101746.09;;;16.34;66.05
65758;BME280;52495;52.208;5.158;2022-08-02T03:00:33;101740.00;;;16.33;66.08
65758;BME280;52495;52.208;5.158;2022-08-02T03:03:19;101742.72;;;16.30;66.58
65758;BME280;52495;52.208;5.158;2022-08-02T03:05:47;101733.19;;;16.28;66.43
65758;BME280;52495;52.208;5.158;2022-08-02T03:08:13;101735.78;;;16.29;66.40
65758;BME280;52495;52.208;5.158;2022-08-02T03:10:41;101726.03;;;16.36;66.14
65758;BME280;52495;52.208;5.158;2022-08-02T03:13:09;101731.22;;;16.37;66.10
65758;BME280;52495;52.208;5.158;2022-08-02T03:15:37;101729.47;;;16.38;66.08
65758;BME280;52495;52.208;5.158;2022-08-02T03:18:05;101738.19;;;16.37;66.10
65758;BME280;52495;52.208;5.158;2022-08-02T03:20:34;101729.50;;;16.36;66.04
65758;BME280;52495;52.208;5.158;2022-08-02T03:23:03;101735.53;;;16.38;66.41
65758;BME280;52495;52.208;5.158;2022-08-02T03:25:30;101723.38;;;16.37;66.11
65758;BME280;52495;52.208;5.158;2022-08-02T03:27:57;101722.50;;;16.38;66.04
65758;BME280;52495;52.208;5.158;2022-08-02T03:30:24;101719.06;;;16.36;66.05
65758;BME280;52495;52.208;5.158;2022-08-02T03:32:52;101715.69;;;16.33;66.12
65758;BME280;52495;52.208;5.158;2022-08-02T03:35:18;101714.75;;;16.35;65.77
65758;BME280;52495;52.208;5.158;2022-08-02T03:37:47;101707.88;;;16.33;66.08
65758;BME280;52495;52.208;5.158;2022-08-02T03:40:15;101701.91;;;16.29;66.03
65758;BME280;52495;52.208;5.158;2022-08-02T03:42:42;101700.97;;;16.32;66.21
65758;BME280;52495;52.208;5.158;2022-08-02T03:45:10;101694.84;;;16.33;65.91
65758;BME280;52495;52.208;5.158;2022-08-02T03:47:39;101688.69;;;16.35;66.03
65758;BME280;52495;52.208;5.158;2022-08-02T03:50:08;101698.19;;;16.38;65.72
65758;BME280;52495;52.208;5.158;2022-08-02T03:52:37;101703.44;;;16.36;65.75
65758;BME280;52495;52.208;5.158;2022-08-02T03:55:07;101710.28;;;16.41;65.52
65758;BME280;52495;52.208;5.158;2022-08-02T03:57:36;101710.13;;;16.45;65.43
65758;BME280;52495;52.208;5.158;2022-08-02T04:00:05;101713.63;;;16.46;65.30
65758;BME280;52495;52.208;5.158;2022-08-02T04:02:38;101708.28;;;16.49;65.59
65758;BME280;52495;52.208;5.158;2022-08-02T04:05:05;101709.09;;;16.51;65.38
65758;BME280;52495;52.208;5.158;2022-08-02T04:07:32;101693.53;;;16.49;65.32
65758;BME280;52495;52.208;5.158;2022-08-02T04:09:59;101700.22;;;16.58;65.18
65758;BME280;52495;52.208;5.158;2022-08-02T04:12:27;101695.00;;;16.58;65.01
65758;BME280;52495;52.208;5.158;2022-08-02T04:14:53;101690.63;;;16.60;64.95
65758;BME280;52495;52.208;5.158;2022-08-02T04:17:22;101687.94;;;16.63;64.93
65758;BME280;52495;52.208;5.158;2022-08-02T04:19:50;101688.69;;;16.67;64.77
65758;BME280;52495;52.208;5.158;2022-08-02T04:22:22;101680.84;;;16.67;64.83
65758;BME280;52495;52.208;5.158;2022-08-02T04:24:54;101692.78;;;16.74;64.65
65758;BME280;52495;52.208;5.158;2022-08-02T04:27:23;101691.91;;;16.75;64.94
65758;BME280;52495;52.208;5.158;2022-08-02T04:29:52;101692.69;;;16.79;64.54
65758;BME280;52495;52.208;5.158;2022-08-02T04:32:20;101690.88;;;16.81;64.45
65758;BME280;52495;52.208;5.158;2022-08-02T04:34:47;101688.28;;;16.81;64.37
65758;BME280;52495;52.208;5.158;2022-08-02T04:37:14;101683.06;;;16.81;64.54
65758;BME280;52495;52.208;5.158;2022-08-02T04:39:41;101683.00;;;16.82;64.49
65758;BME280;52495;52.208;5.158;2022-08-02T04:42:08;101682.09;;;16.83;64.64
65758;BME280;52495;52.208;5.158;2022-08-02T04:44:35;101681.22;;;16.84;64.54
65758;BME280;52495;52.208;5.158;2022-08-02T04:47:04;101688.13;;;16.86;64.64
65758;BME280;52495;52.208;5.158;2022-08-02T04:49:31;101683.81;;;16.84;64.64
65758;BME280;52495;52.208;5.158;2022-08-02T04:51:58;101680.34;;;16.84;64.50
65758;BME280;52495;52.208;5.158;2022-08-02T04:54:25;101679.50;;;16.83;64.48
65758;BME280;52495;52.208;5.158;2022-08-02T04:56:52;101672.50;;;16.84;64.44
65758;BME280;52495;52.208;5.158;2022-08-02T04:59:19;101668.16;;;16.84;64.50
65758;BME280;52495;52.208;5.158;2022-08-02T05:01:46;101668.13;;;16.86;64.65
65758;BME280;52495;52.208;5.158;2022-08-02T05:04:14;101661.16;;;16.87;64.64
65758;BME280;52495;52.208;5.158;2022-08-02T05:06:40;101656.78;;;16.87;64.58
65758;BME280;52495;52.208;5.158;2022-08-02T05:09:07;101651.53;;;16.89;64.59
65758;BME280;52495;52.208;5.158;2022-08-02T05:11:34;101649.69;;;16.92;64.50
65758;BME280;52495;52.208;5.158;2022-08-02T05:14:01;101643.56;;;16.93;64.29
65758;BME280;52495;52.208;5.158;2022-08-02T05:16:27;101654.69;;;17.00;64.21
65758;BME280;52495;52.208;5.158;2022-08-02T05:18:54;101657.22;;;17.02;64.39
65758;BME280;52495;52.208;5.158;2022-08-02T05:21:22;101659.75;;;17.05;64.06
65758;BME280;52495;52.208;5.158;2022-08-02T05:23:49;101663.00;;;17.13;63.71
65758;BME280;52495;52.208;5.158;2022-08-02T05:26:15;101664.63;;;17.16;63.91
65758;BME280;52495;52.208;5.158;2022-08-02T05:28:42;101672.28;;;17.22;63.82
65758;BME280;52495;52.208;5.158;2022-08-02T05:31:09;101682.47;;;17.29;63.73
65758;BME280;52495;52.208;5.158;2022-08-02T05:33:36;101684.84;;;17.37;63.49
65758;BME280;52495;52.208;5.158;2022-08-02T05:36:03;101689.84;;;17.43;63.45
65758;BME280;52495;52.208;5.158;2022-08-02T05:38:31;101691.53;;;17.46;63.40
65758;BME280;52495;52.208;5.158;2022-08-02T05:40:57;101687.78;;;17.53;63.15
65758;BME280;52495;52.208;5.158;2022-08-02T05:43:24;101693.72;;;17.58;63.14
65758;BME280;52495;52.208;5.158;2022-08-02T05:45:51;101684.78;;;17.66;63.00
65758;BME280;52495;52.208;5.158;2022-08-02T05:48:19;101681.16;;;17.70;62.73
65758;BME280;52495;52.208;5.158;2022-08-02T05:50:48;101690.56;;;17.75;62.61
65758;BME280;52495;52.208;5.158;2022-08-02T05:53:23;101685.22;;;17.79;62.56
65758;BME280;52495;52.208;5.158;2022-08-02T05:55:56;101682.41;;;17.85;62.69
65758;BME280;52495;52.208;5.158;2022-08-02T05:58:35;101671.75;;;17.91;62.68
65758;BME280;52495;52.208;5.158;2022-08-02T06:01:06;101668.81;;;18.00;62.43
65758;BME280;52495;52.208;5.158;2022-08-02T06:03:37;101672.97;;;18.06;62.25
65758;BME280;52495;52.208;5.158;2022-08-02T06:06:09;101672.69;;;18.14;61.89
65758;BME280;52495;52.208;5.158;2022-08-02T06:08:38;101667.34;;;18.18;62.13
65758;BME280;52495;52.208;5.158;2022-08-02T06:11:11;101669.66;;;18.26;61.82
65758;BME280;52495;52.208;5.158;2022-08-02T06:13:39;101652.94;;;18.30;61.63
65758;BME280;52495;52.208;5.158;2022-08-02T06:16:06;101660.56;;;18.37;61.51
65758;BME280;52495;52.208;5.158;2022-08-02T06:18:34;101655.16;;;18.41;61.54
65758;BME280;52495;52.208;5.158;2022-08-02T06:21:02;101668.03;;;18.47;61.53
65758;BME280;52495;52.208;5.158;2022-08-02T06:23:30;101670.44;;;18.52;61.44
65758;BME280;52495;52.208;5.158;2022-08-02T06:26:01;101667.63;;;18.58;61.66
65758;BME280;52495;52.208;5.158;2022-08-02T06:28:30;101665.66;;;18.63;61.75
65758;BME280;52495;52.208;5.158;2022-08-02T06:30:58;101657.50;;;18.71;61.66
65758;BME280;52495;52.208;5.158;2022-08-02T06:33:24;101665.25;;;18.74;61.78
65758;BME280;52495;52.208;5.158;2022-08-02T06:35:58;101656.31;;;18.80;61.47
65758;BME280;52495;52.208;5.158;2022-08-02T06:38:33;101651.66;;;18.88;61.34
65758;BME280;52495;52.208;5.158;2022-08-02T06:41:05;101639.34;;;18.90;61.47
65758;BME280;52495;52.208;5.158;2022-08-02T06:43:43;101635.59;;;18.98;61.64
65758;BME280;52495;52.208;5.158;2022-08-02T06:46:10;101639.56;;;19.08;61.66
65758;BME280;52495;52.208;5.158;2022-08-02T06:48:37;101641.91;;;19.14;61.80
65758;BME280;52495;52.208;5.158;2022-08-02T06:51:04;101639.06;;;19.20;61.70
65758;BME280;52495;52.208;5.158;2022-08-02T06:53:31;101637.00;;;19.29;61.58
65758;BME280;52495;52.208;5.158;2022-08-02T06:55:58;101632.41;;;19.34;61.67
65758;BME280;52495;52.208;5.158;2022-08-02T06:58:25;101629.41;;;19.43;61.77
65758;BME280;52495;52.208;5.158;2022-08-02T07:00:53;101643.28;;;19.45;61.56
65758;BME280;52495;52.208;5.158;2022-08-02T07:03:20;101644.84;;;19.49;61.52
65758;BME280;52495;52.208;5.158;2022-08-02T07:05:50;101640.19;;;19.56;61.93
65758;BME280;52495;52.208;5.158;2022-08-02T07:08:17;101627.72;;;19.63;61.71
65758;BME280;52495;52.208;5.158;2022-08-02T07:10:44;101633.47;;;19.71;61.86
65758;BME280;52495;52.208;5.158;2022-08-02T07:13:11;101641.06;;;19.77;61.84
65758;BME280;52495;52.208;5.158;2022-08-02T07:15:38;101635.50;;;19.85;61.78
65758;BME280;52495;52.208;5.158;2022-08-02T07:18:07;101628.25;;;19.92;61.93
65758;BME280;52495;52.208;5.158;2022-08-02T07:20:39;101625.38;;;19.98;61.60
65758;BME280;52495;52.208;5.158;2022-08-02T07:23:06;101618.13;;;20.03;61.59
65758;BME280;52495;52.208;5.158;2022-08-02T07:25:32;101615.28;;;20.08;61.60
65758;BME280;52495;52.208;5.158;2022-08-02T07:27:59;101614.38;;;20.09;61.49
65758;BME280;52495;52.208;5.158;2022-08-02T07:30:26;101612.63;;;20.09;61.76
65758;BME280;52495;52.208;5.158;2022-08-02T07:32:52;101610.66;;;20.14;61.94
65758;BME280;52495;52.208;5.158;2022-08-02T07:35:21;101611.22;;;20.21;62.02
65758;BME280;52495;52.208;5.158;2022-08-02T07:37:47;101611.66;;;20.31;61.99
65758;BME280;52495;52.208;5.158;2022-08-02T07:40:14;101614.53;;;20.44;61.92
65758;BME280;52495;52.208;5.158;2022-08-02T07:42:42;101613.19;;;20.54;61.85
65758;BME280;52495;52.208;5.158;2022-08-02T07:45:09;101607.50;;;20.63;61.85
65758;BME280;52495;52.208;5.158;2022-08-02T07:47:36;101602.56;;;20.76;61.79
65758;BME280;52495;52.208;5.158;2022-08-02T07:50:05;101602.28;;;20.83;62.66
65758;BME280;52495;52.208;5.158;2022-08-02T07:52:33;101602.72;;;20.91;62.96
65758;BME280;52495;52.208;5.158;2022-08-02T07:55:00;101598.88;;;20.98;62.74
65758;BME280;52495;52.208;5.158;2022-08-02T07:57:27;101603.63;;;21.09;62.80
65758;BME280;52495;52.208;5.158;2022-08-02T07:59:54;101600.66;;;21.15;62.90
65758;BME280;52495;52.208;5.158;2022-08-02T08:02:20;101604.56;;;21.26;62.73
65758;BME280;52495;52.208;5.158;2022-08-02T08:04:50;101595.56;;;21.30;62.98
65758;BME280;52495;52.208;5.158;2022-08-02T08:07:17;101600.38;;;21.39;63.21
65758;BME280;52495;52.208;5.158;2022-08-02T08:09:45;101596.28;;;21.51;63.46
65758;BME280;52495;52.208;5.158;2022-08-02T08:12:12;101601.97;;;21.59;62.88
65758;BME280;52495;52.208;5.158;2022-08-02T08:14:40;101608.81;;;21.63;62.95
65758;BME280;52495;52.208;5.158;2022-08-02T08:17:07;101595.66;;;21.63;63.23
65758;BME280;52495;52.208;5.158;2022-08-02T08:19:34;101600.66;;;21.68;62.78
65758;BME280;52495;52.208;5.158;2022-08-02T08:22:01;101596.97;;;21.72;62.49
65758;BME280;52495;52.208;5.158;2022-08-02T08:24:28;101584.44;;;21.77;62.26
65758;BME280;52495;52.208;5.158;2022-08-02T08:26:56;101590.13;;;21.86;61.94
65758;BME280;52495;52.208;5.158;2022-08-02T08:29:23;101594.97;;;21.93;61.99
65758;BME280;52495;52.208;5.158;2022-08-02T08:31:51;101583.88;;;22.04;62.09
65758;BME280;52495;52.208;5.158;2022-08-02T08:34:17;101585.94;;;22.15;61.42
65758;BME280;52495;52.208;5.158;2022-08-02T08:36:44;101590.09;;;22.19;61.38
65758;BME280;52495;52.208;5.158;2022-08-02T08:39:11;101584.66;;;22.22;61.20
65758;BME280;52495;52.208;5.158;2022-08-02T08:41:41;101585.66;;;22.20;61.31
65758;BME280;52495;52.208;5.158;2022-08-02T08:44:10;101590.66;;;22.24;61.68
65758;BME280;52495;52.208;5.158;2022-08-02T08:46:41;101588.31;;;22.36;61.05
65758;BME280;52495;52.208;5.158;2022-08-02T08:49:21;101587.28;;;22.38;61.44
65758;BME280;52495;52.208;5.158;2022-08-02T08:51:50;101590.34;;;22.47;61.15
65758;BME280;52495;52.208;5.158;2022-08-02T08:54:22;101592.66;;;22.53;61.28
65758;BME280;52495;52.208;5.158;2022-08-02T08:56:50;101593.00;;;22.63;61.22
65758;BME280;52495;52.208;5.158;2022-08-02T08:59:23;101585.53;;;22.71;60.61
65758;BME280;52495;52.208;5.158;2022-08-02T09:01:51;101579.56;;;22.83;60.56
65758;BME280;52495;52.208;5.158;2022-08-02T09:04:19;101592.28;;;22.91;59.46
65758;BME280;52495;52.208;5.158;2022-08-02T09:06:46;101602.88;;;22.89;59.35
65758;BME280;52495;52.208;5.158;2022-08-02T09:09:13;101601.25;;;23.03;59.32
65758;BME280;52495;52.208;5.158;2022-08-02T09:11:40;101592.72;;;23.14;59.05
65758;BME280;52495;52.208;5.158;2022-08-02T09:14:06;101592.03;;;23.26;59.15
65758;BME280;52495;52.208;5.158;2022-08-02T09:16:36;101590.06;;;23.44;58.95
65758;BME280;52495;52.208;5.158;2022-08-02T09:19:16;101611.84;;;23.48;57.98
65758;BME280;52495;52.208;5.158;2022-08-02T09:21:44;101601.50;;;23.59;58.31
65758;BME280;52495;52.208;5.158;2022-08-02T09:24:16;101599.03;;;23.71;58.08
65758;BME280;52495;52.208;5.158;2022-08-02T09:26:43;101596.81;;;23.79;58.10
65758;BME280;52495;52.208;5.158;2022-08-02T09:29:15;101594.34;;;23.76;58.18
65758;BME280;52495;52.208;5.158;2022-08-02T09:31:43;101597.16;;;23.73;58.67
65758;BME280;52495;52.208;5.158;2022-08-02T09:34:10;101597.06;;;23.74;59.06
65758;BME280;52495;52.208;5.158;2022-08-02T09:36:39;101597.94;;;23.75;58.49
65758;BME280;52495;52.208;5.158;2022-08-02T09:39:08;101589.72;;;23.79;58.69
65758;BME280;52495;52.208;5.158;2022-08-02T09:41:37;101592.00;;;23.86;59.10
65758;BME280;52495;52.208;5.158;2022-08-02T09:44:07;101592.00;;;24.00;59.21
65758;BME280;52495;52.208;5.158;2022-08-02T09:46:35;101582.50;;;24.12;58.97
65758;BME280;52495;52.208;5.158;2022-08-02T09:49:06;101584.34;;;24.24;58.77
65758;BME280;52495;52.208;5.158;2022-08-02T09:51:34;101590.34;;;24.41;58.71
65758;BME280;52495;52.208;5.158;2022-08-02T09:54:03;101584.94;;;24.57;58.45
65758;BME280;52495;52.208;5.158;2022-08-02T09:56:43;101584.31;;;24.66;57.58
65758;BME280;52495;52.208;5.158;2022-08-02T09:59:11;101584.97;;;24.70;57.76
65758;BME280;52495;52.208;5.158;2022-08-02T10:01:38;101585.72;;;24.72;57.72
65758;BME280;52495;52.208;5.158;2022-08-02T10:04:08;101589.72;;;24.65;57.83
65758;BME280;52495;52.208;5.158;2022-08-02T10:06:36;101596.97;;;24.61;57.73
65758;BME280;52495;52.208;5.158;2022-08-02T10:09:03;101611.97;;;24.61;57.73
65758;BME280;52495;52.208;5.158;2022-08-02T10:11:30;101605.75;;;24.62;57.71
65758;BME280;52495;52.208;5.158;2022-08-02T10:14:01;101592.84;;;24.57;57.32
65758;BME280;52495;52.208;5.158;2022-08-02T10:16:30;101592.91;;;24.70;57.37
65758;BME280;52495;52.208;5.158;2022-08-02T10:18:58;101597.28;;;24.84;56.02
65758;BME280;52495;52.208;5.158;2022-08-02T10:21:31;101601.56;;;24.99;55.34
65758;BME280;52495;52.208;5.158;2022-08-02T10:24:04;101609.81;;;25.08;55.31
65758;BME280;52495;52.208;5.158;2022-08-02T10:26:32;101596.72;;;25.19;54.63
65758;BME280;52495;52.208;5.158;2022-08-02T10:29:00;101606.16;;;25.23;54.11
65758;BME280;52495;52.208;5.158;2022-08-02T10:31:31;101584.16;;;25.23;54.20
65758;BME280;52495;52.208;5.158;2022-08-02T10:34:00;101589.22;;;25.26;54.12
65758;BME280;52495;52.208;5.158;2022-08-02T10:36:31;101581.50;;;25.23;53.48
65758;BME280;52495;52.208;5.158;2022-08-02T10:39:00;101582.03;;;25.15;53.72
65758;BME280;52495;52.208;5.158;2022-08-02T10:41:45;101577.59;;;25.15;54.04
65758;BME280;52495;52.208;5.158;2022-08-02T10:44:28;101580.34;;;25.01;52.29
65758;BME280;52495;52.208;5.158;2022-08-02T10:47:21;101569.25;;;25.09;52.75
65758;BME280;52495;52.208;5.158;2022-08-02T10:49:49;101567.00;;;25.03;51.78
65758;BME280;52495;52.208;5.158;2022-08-02T10:52:18;101573.50;;;25.24;51.34
65758;BME280;52495;52.208;5.158;2022-08-02T10:54:53;101573.47;;;25.37;51.42
65758;BME280;52495;52.208;5.158;2022-08-02T10:57:22;101571.63;;;25.52;50.66
65758;BME280;52495;52.208;5.158;2022-08-02T10:59:51;101565.69;;;25.62;50.45
65758;BME280;52495;52.208;5.158;2022-08-02T11:02:36;101563.03;;;25.74;50.17
65758;BME280;52495;52.208;5.158;2022-08-02T11:05:06;101561.94;;;25.90;49.49
65758;BME280;52495;52.208;5.158;2022-08-02T11:07:42;101564.56;;;25.90;48.37
65758;BME280;52495;52.208;5.158;2022-08-02T11:10:29;101555.91;;;25.88;48.66
65758;BME280;52495;52.208;5.158;2022-08-02T11:13:08;101555.88;;;26.01;48.31
65758;BME280;52495;52.208;5.158;2022-08-02T11:15:53;101559.53;;;25.87;47.07
65758;BME280;52495;52.208;5.158;2022-08-02T11:18:25;101565.09;;;25.95;47.14
65758;BME280;52495;52.208;5.158;2022-08-02T11:21:22;101558.44;;;26.02;47.40
65758;BME280;52495;52.208;5.158;2022-08-02T11:23:54;101563.69;;;26.15;46.70
65758;BME280;52495;52.208;5.158;2022-08-02T11:26:44;101562.44;;;26.21;46.65
65758;BME280;52495;52.208;5.158;2022-08-02T11:29:11;101574.63;;;26.35;46.46
65758;BME280;52495;52.208;5.158;2022-08-02T11:31:40;101568.72;;;26.31;45.88
65758;BME280;52495;52.208;5.158;2022-08-02T11:34:07;101571.22;;;26.46;46.47
65758;BME280;52495;52.208;5.158;2022-08-02T11:36:46;101573.13;;;26.44;45.32
65758;BME280;52495;52.208;5.158;2022-08-02T11:39:16;101569.00;;;26.40;45.64
65758;BME280;52495;52.208;5.158;2022-08-02T11:41:50;101572.22;;;26.32;45.22
65758;BME280;52495;52.208;5.158;2022-08-02T11:44:17;101569.56;;;26.32;45.41
65758;BME280;52495;52.208;5.158;2022-08-02T11:46:52;101556.84;;;26.37;45.80
65758;BME280;52495;52.208;5.158;2022-08-02T11:49:19;101555.53;;;26.43;45.93
65758;BME280;52495;52.208;5.158;2022-08-02T11:51:50;101554.97;;;26.50;45.30
65758;BME280;52495;52.208;5.158;2022-08-02T11:54:23;101558.50;;;26.51;45.64
65758;BME280;52495;52.208;5.158;2022-08-02T11:56:51;101557.31;;;26.55;45.70
65758;BME280;52495;52.208;5.158;2022-08-02T11:59:17;101560.00;;;26.42;45.92
65758;BME280;52495;52.208;5.158;2022-08-02T12:01:44;101551.16;;;26.55;45.87
65758;BME280;52495;52.208;5.158;2022-08-02T12:04:15;101562.31;;;26.47;45.66
65758;BME280;52495;52.208;5.158;2022-08-02T12:06:42;101567.56;;;26.35;45.81
65758;BME280;52495;52.208;5.158;2022-08-02T12:09:13;101558.53;;;26.38;45.62
65758;BME280;52495;52.208;5.158;2022-08-02T12:11:41;101554.88;;;26.28;46.17
65758;BME280;52495;52.208;5.158;2022-08-02T12:14:08;101553.59;;;26.33;45.54
65758;BME280;52495;52.208;5.158;2022-08-02T12:16:37;101558.88;;;26.33;46.11
65758;BME280;52495;52.208;5.158;2022-08-02T12:19:22;101554.03;;;26.51;46.18
65758;BME280;52495;52.208;5.158;2022-08-02T12:22:09;101557.00;;;26.71;45.56
65758;BME280;52495;52.208;5.158;2022-08-02T12:24:37;101562.25;;;26.84;44.76
65758;BME280;52495;52.208;5.158;2022-08-02T12:27:33;101559.84;;;26.92;45.51
65758;BME280;52495;52.208;5.158;2022-08-02T12:30:05;101561.47;;;27.06;45.12
65758;BME280;52495;52.208;5.158;2022-08-02T12:32:32;101555.72;;;27.13;44.49
65758;BME280;52495;52.208;5.158;2022-08-02T12:35:05;101541.25;;;27.17;43.93
65758;BME280;52495;52.208;5.158;2022-08-02T12:37:34;101547.41;;;27.29;44.16
65758;BME280;52495;52.208;5.158;2022-08-02T12:40:16;101539.34;;;27.41;43.38
65758;BME280;52495;52.208;5.158;2022-08-02T12:42:46;101548.28;;;27.52;42.00
65758;BME280;52495;52.208;5.158;2022-08-02T12:45:13;101556.88;;;27.67;41.81
65758;BME280;52495;52.208;5.158;2022-08-02T12:47:44;101545.16;;;27.81;41.21
65758;BME280;52495;52.208;5.158;2022-08-02T12:50:16;101541.16;;;27.86;41.04
65758;BME280;52495;52.208;5.158;2022-08-02T12:52:43;101538.75;;;27.83;41.57
65758;BME280;52495;52.208;5.158;2022-08-02T12:55:17;101543.09;;;27.84;41.56
65758;BME280;52495;52.208;5.158;2022-08-02T12:57:58;101532.25;;;27.76;41.01
65758;BME280;52495;52.208;5.158;2022-08-02T13:00:27;101541.44;;;27.72;41.51
65758;BME280;52495;52.208;5.158;2022-08-02T13:02:54;101535.88;;;27.75;41.80